createdAt,value
2023-04-16T00:00:46.413Z,14.50
2023-04-16T00:03:31.567Z,11.82
2023-04-16T00:05:59.450Z,13.65
2023-04-16T00:08:26.903Z,12.85
2023-04-16T00:10:54.482Z,12.98
2023-04-16T00:13:22.722Z,16.23
2023-04-16T00:15:50.257Z,22.20
2023-04-16T00:18:17.462Z,21.73
2023-04-16T00:20:45.110Z,21.25
2023-04-16T00:23:12.301Z,22.40
2023-04-16T00:25:39.840Z,19.55
2023-04-16T00:28:07.565Z,17.55
2023-04-16T00:30:36.025Z,16.92
2023-04-16T00:33:04.787Z,24.50
2023-04-16T00:35:32.413Z,33.60
2023-04-16T00:37:59.668Z,29.73
2023-04-16T00:40:30.726Z,35.83
2023-04-16T00:42:57.952Z,40.35
2023-04-16T00:45:25.470Z,47.83
2023-04-16T00:47:52.782Z,48.97
2023-04-16T00:50:20.369Z,46.47
2023-04-16T00:52:48.958Z,45.67
2023-04-16T00:55:18.902Z,44.35
2023-04-16T00:57:46.246Z,42.92
2023-04-16T01:00:14.170Z,41.30
2023-04-16T01:02:41.983Z,39.47
2023-04-16T01:05:09.728Z,39.50
2023-04-16T01:07:36.956Z,37.22
2023-04-16T01:10:04.768Z,40.92
2023-04-16T01:12:32.639Z,35.83
2023-04-16T01:15:00.779Z,35.70
2023-04-16T01:17:28.045Z,29.02
2023-04-16T01:20:00.215Z,34.33
2023-04-16T01:24:57.842Z,37.72
2023-04-16T01:27:25.063Z,43.25
2023-04-16T01:29:52.746Z,44.75
2023-04-16T01:32:26.180Z,39.10
2023-04-16T01:34:53.651Z,42.88
2023-04-16T01:37:21.490Z,40.53
2023-04-16T01:39:48.907Z,43.28
2023-04-16T01:42:16.137Z,38.40
2023-04-16T01:44:43.980Z,46.65
2023-04-16T01:47:11.167Z,47.47
2023-04-16T01:49:38.734Z,40.85
2023-04-16T01:52:08.431Z,46.40
2023-04-16T01:54:35.955Z,51.95
2023-04-16T01:57:03.282Z,49.25
2023-04-16T01:59:30.853Z,47.75
2023-04-16T02:02:11.489Z,41.85
2023-04-16T02:04:41.109Z,22.83
2023-04-16T02:07:09.155Z,19.80
2023-04-16T02:09:37.907Z,21.08
2023-04-16T02:12:07.789Z,25.65
2023-04-16T02:14:35.373Z,17.48
2023-04-16T02:17:02.564Z,17.75
2023-04-16T02:19:43.419Z,18.83
2023-04-16T02:22:11.014Z,23.35
2023-04-16T02:24:38.574Z,17.70
2023-04-16T02:27:09.094Z,25.75
2023-04-16T02:29:36.851Z,23.40
2023-04-16T02:32:16.611Z,30.13
2023-04-16T02:34:46.151Z,32.70
2023-04-16T02:37:15.453Z,33.33
2023-04-16T02:39:44.083Z,29.95
2023-04-16T02:42:11.290Z,44.63
2023-04-16T02:44:38.874Z,55.38
2023-04-16T02:47:06.039Z,56.97
2023-04-16T02:49:33.702Z,59.35
2023-04-16T02:52:00.990Z,54.97
2023-04-16T02:54:28.432Z,45.17
2023-04-16T02:56:55.671Z,54.90
2023-04-16T02:59:23.199Z,50.13
2023-04-16T03:01:50.630Z,54.25
2023-04-16T03:04:18.325Z,56.97
2023-04-16T03:06:45.647Z,69.53
2023-04-16T03:09:13.346Z,51.38
2023-04-16T03:11:40.711Z,62.33
2023-04-16T03:14:08.312Z,68.35
2023-04-16T03:16:35.532Z,67.53
2023-04-16T03:19:03.010Z,70.13
2023-04-16T03:21:30.231Z,58.85
2023-04-16T03:23:59.193Z,73.22
2023-04-16T03:26:26.466Z,52.75
2023-04-16T03:28:54.914Z,51.33
2023-04-16T03:31:24.880Z,49.65
2023-04-16T03:33:53.031Z,48.20
2023-04-16T03:36:20.551Z,60.15
2023-04-16T03:38:51.429Z,47.47
2023-04-16T03:41:19.797Z,43.20
2023-04-16T03:43:47.340Z,45.67
2023-04-16T03:46:14.517Z,45.90
2023-04-16T03:48:42.070Z,49.35
2023-04-16T03:51:09.268Z,46.08
2023-04-16T03:53:36.831Z,37.97
2023-04-16T03:56:04.208Z,45.70
2023-04-16T03:58:31.862Z,49.00
2023-04-16T04:00:59.018Z,49.22
2023-04-16T04:03:26.694Z,41.45
2023-04-16T04:05:55.391Z,32.05
2023-04-16T04:08:29.201Z,36.45
2023-04-16T04:10:56.626Z,33.92
2023-04-16T04:13:25.452Z,34.80
2023-04-16T04:15:53.593Z,36.00
2023-04-16T04:18:22.016Z,32.47
2023-04-16T04:20:49.344Z,40.10
2023-04-16T04:23:19.863Z,32.10
2023-04-16T04:25:47.749Z,29.48
2023-04-16T04:28:15.703Z,30.60
2023-04-16T04:30:43.128Z,29.15
2023-04-16T04:33:11.077Z,36.85
2023-04-16T04:35:39.039Z,30.33
2023-04-16T04:38:06.707Z,26.48
2023-04-16T04:40:34.572Z,26.20
2023-04-16T04:43:02.032Z,28.48
2023-04-16T04:45:31.694Z,29.92
2023-04-16T04:47:59.590Z,31.40
2023-04-16T04:50:26.853Z,30.15
2023-04-16T04:52:54.367Z,26.50
2023-04-16T04:55:22.567Z,27.15
2023-04-16T04:57:51.363Z,28.00
2023-04-16T05:00:18.609Z,31.15
2023-04-16T05:02:53.465Z,31.88
2023-04-16T05:05:20.914Z,31.48
2023-04-16T05:07:48.448Z,28.15
2023-04-16T05:10:15.841Z,28.40
2023-04-16T05:12:43.294Z,36.67
2023-04-16T05:15:10.796Z,31.58
2023-04-16T05:17:38.310Z,32.53
2023-04-16T05:20:06.260Z,32.83
2023-04-16T05:22:33.723Z,31.70
2023-04-16T05:25:01.205Z,24.73
2023-04-16T05:27:28.747Z,26.90
2023-04-16T05:29:56.213Z,26.92
2023-04-16T05:32:26.700Z,28.13
2023-04-16T05:34:54.005Z,25.85
2023-04-16T05:37:21.512Z,27.48
2023-04-16T05:39:49.023Z,28.70
2023-04-16T05:42:16.563Z,27.63
2023-04-16T05:44:44.028Z,28.58
2023-04-16T05:47:11.476Z,29.05
2023-04-16T05:49:38.653Z,29.33
2023-04-16T05:52:07.455Z,35.38
2023-04-16T05:54:34.728Z,29.95
2023-04-16T05:57:02.438Z,30.60
2023-04-16T05:59:30.944Z,30.98
2023-04-16T06:01:58.689Z,37.58
2023-04-16T06:04:26.025Z,38.50
2023-04-16T06:06:53.560Z,39.45
2023-04-16T06:09:20.924Z,43.17
2023-04-16T06:11:49.209Z,41.35
2023-04-16T06:14:16.439Z,37.45
2023-04-16T06:16:44.145Z,37.03
2023-04-16T06:19:11.539Z,33.13
2023-04-16T06:21:39.228Z,28.60
2023-04-16T06:24:06.538Z,36.95
2023-04-16T06:26:33.959Z,32.25
2023-04-16T06:29:01.184Z,41.13
2023-04-16T06:31:29.787Z,38.55
2023-04-16T06:33:57.095Z,29.52
2023-04-16T06:36:24.577Z,37.90
2023-04-16T06:38:51.754Z,34.47
2023-04-16T06:41:19.342Z,36.03
2023-04-16T06:43:46.808Z,34.05
2023-04-16T06:46:14.454Z,42.20
2023-04-16T06:48:41.636Z,48.90
2023-04-16T06:51:09.255Z,35.72
2023-04-16T06:53:37.679Z,34.63
2023-04-16T06:56:05.629Z,41.13
2023-04-16T06:58:33.062Z,52.70
2023-04-16T07:01:00.658Z,49.22
2023-04-16T07:03:28.359Z,47.88
2023-04-16T07:05:57.035Z,50.28
2023-04-16T07:08:24.969Z,48.70
2023-04-16T07:10:53.907Z,51.00
2023-04-16T07:13:21.701Z,54.08
2023-04-16T07:15:49.218Z,49.42
2023-04-16T07:18:16.788Z,45.05
2023-04-16T07:20:44.240Z,40.97
2023-04-16T07:23:11.550Z,40.13
2023-04-16T07:25:39.361Z,39.40
2023-04-16T07:28:06.556Z,44.65
2023-04-16T07:30:34.828Z,36.05
2023-04-16T07:33:05.083Z,35.53
2023-04-16T07:35:32.711Z,50.38
2023-04-16T07:37:59.870Z,47.58
2023-04-16T07:40:27.645Z,48.15
2023-04-16T07:42:56.150Z,43.95
2023-04-16T07:45:24.010Z,39.97
2023-04-16T07:47:51.343Z,32.33
2023-04-16T07:50:19.564Z,30.35
2023-04-16T07:52:47.700Z,34.95
2023-04-16T07:55:15.148Z,35.88
2023-04-16T07:57:42.324Z,36.25
2023-04-16T08:00:10.854Z,31.80
2023-04-16T08:02:41.773Z,21.05
2023-04-16T08:05:09.584Z,23.08
2023-04-16T08:07:36.838Z,22.48
2023-04-16T08:10:05.436Z,16.10
2023-04-16T08:12:33.331Z,15.85
2023-04-16T08:15:00.834Z,17.17
2023-04-16T08:17:29.614Z,12.00
2023-04-16T08:19:57.235Z,11.10
2023-04-16T08:22:24.615Z,15.15
2023-04-16T08:24:52.492Z,13.95
2023-04-16T08:27:20.444Z,11.25
2023-04-16T08:29:48.607Z,13.32
2023-04-16T08:32:15.931Z,13.00
2023-04-16T08:34:43.695Z,13.35
2023-04-16T08:37:10.997Z,19.55
2023-04-16T08:39:38.541Z,22.13
2023-04-16T08:42:12.083Z,19.52
2023-04-16T08:44:49.232Z,23.60
2023-04-16T08:47:16.820Z,19.42
2023-04-16T08:49:48.218Z,6.95
2023-04-16T08:52:19.546Z,5.72
2023-04-16T08:55:15.550Z,5.88
2023-04-16T08:57:57.704Z,4.13
2023-04-16T09:00:25.582Z,4.20
2023-04-16T09:02:53.934Z,3.85
2023-04-16T09:05:25.777Z,5.35
2023-04-16T09:07:54.682Z,4.95
2023-04-16T09:10:22.534Z,5.10
2023-04-16T09:12:49.940Z,6.47
2023-04-16T09:15:17.401Z,3.63
2023-04-16T09:17:44.701Z,3.03
2023-04-16T09:20:12.695Z,4.05
2023-04-16T09:22:42.704Z,5.63
2023-04-16T09:25:11.351Z,3.50
2023-04-16T09:27:39.387Z,2.78
2023-04-16T09:30:21.960Z,4.82
2023-04-16T09:32:50.223Z,3.88
2023-04-16T09:35:21.233Z,2.00
2023-04-16T09:37:57.113Z,2.40
2023-04-16T09:40:26.841Z,3.78
2023-04-16T09:42:58.206Z,2.92
2023-04-16T09:45:25.686Z,3.05
2023-04-16T09:47:52.878Z,3.42
2023-04-16T09:50:20.685Z,3.65
2023-04-16T09:52:51.723Z,2.90
2023-04-16T09:55:27.884Z,5.60
2023-04-16T09:58:02.101Z,3.70
2023-04-16T10:00:31.539Z,3.58
2023-04-16T10:03:07.319Z,3.50
2023-04-16T10:05:35.356Z,7.45
2023-04-16T10:08:03.363Z,4.88
2023-04-16T10:10:30.987Z,5.65
2023-04-16T10:12:58.547Z,5.55
2023-04-16T10:15:26.551Z,4.25
2023-04-16T10:17:54.383Z,5.68
2023-04-16T10:20:23.988Z,6.63
2023-04-16T10:22:51.658Z,6.55
2023-04-16T10:25:19.721Z,5.45
2023-04-16T10:27:47.786Z,5.55
2023-04-16T10:30:16.958Z,4.68
2023-04-16T10:32:46.538Z,7.10
2023-04-16T10:35:20.501Z,10.25
2023-04-16T10:37:47.683Z,5.38
2023-04-16T10:40:23.813Z,5.32
2023-04-16T10:42:58.806Z,4.53
2023-04-16T10:45:53.889Z,4.75
2023-04-16T10:48:21.395Z,4.28
2023-04-16T10:50:57.475Z,5.03
2023-04-16T10:53:26.882Z,3.70
2023-04-16T10:55:57.569Z,5.43
2023-04-16T10:58:29.986Z,4.80
2023-04-16T11:01:01.740Z,4.75
2023-04-16T11:03:32.506Z,4.78
2023-04-16T11:06:27.738Z,4.47
2023-04-16T11:08:55.572Z,5.30
2023-04-16T11:11:23.794Z,4.40
2023-04-16T11:13:56.445Z,4.95
2023-04-16T11:16:25.587Z,5.45
2023-04-16T11:18:53.957Z,3.75
2023-04-16T11:21:24.324Z,5.25
2023-04-16T11:23:53.397Z,3.45
2023-04-16T11:26:24.153Z,4.95
2023-04-16T11:28:52.002Z,3.35
2023-04-16T11:31:19.611Z,4.25
2023-04-16T11:33:47.117Z,3.92
2023-04-16T11:36:14.757Z,4.47
2023-04-16T11:38:43.025Z,4.68
2023-04-16T11:41:11.262Z,5.18
2023-04-16T11:43:38.446Z,4.05
2023-04-16T11:46:16.579Z,4.30
2023-04-16T11:48:55.627Z,4.88
2023-04-16T11:51:23.720Z,5.28
2023-04-16T11:53:56.285Z,3.88
2023-04-16T11:56:32.956Z,5.30
2023-04-16T11:59:19.341Z,3.50
2023-04-16T12:01:56.238Z,6.20
2023-04-16T12:04:26.075Z,5.00
2023-04-16T12:07:16.030Z,4.68
2023-04-16T12:09:44.130Z,4.82
2023-04-16T12:12:32.500Z,10.23
2023-04-16T12:15:03.285Z,7.13
2023-04-16T12:17:35.722Z,9.40
2023-04-16T12:20:08.450Z,7.00
2023-04-16T12:22:37.712Z,6.70
2023-04-16T12:25:13.520Z,5.40
2023-04-16T12:27:53.781Z,5.53
2023-04-16T12:30:28.527Z,6.32
2023-04-16T12:33:16.682Z,8.80
2023-04-16T12:35:45.038Z,9.38
2023-04-16T12:38:14.279Z,8.73
2023-04-16T12:40:42.032Z,6.93
2023-04-16T12:43:10.054Z,8.25
2023-04-16T12:45:38.545Z,10.95
2023-04-16T12:48:06.940Z,8.32
2023-04-16T12:50:34.315Z,7.78
2023-04-16T12:53:01.930Z,8.43
2023-04-16T12:55:29.330Z,9.30
2023-04-16T12:57:56.850Z,13.93
2023-04-16T13:00:24.221Z,8.30
2023-04-16T13:02:51.774Z,8.18
2023-04-16T13:05:19.700Z,8.38
2023-04-16T13:07:47.038Z,8.27
2023-04-16T13:10:14.609Z,5.30
2023-04-16T13:12:41.890Z,6.40
2023-04-16T13:15:10.672Z,5.90
2023-04-16T13:17:37.909Z,6.30
2023-04-16T13:20:06.000Z,6.55
2023-04-16T13:22:33.782Z,8.75
2023-04-16T13:25:01.276Z,7.68
2023-04-16T13:27:30.361Z,8.18
2023-04-16T13:29:57.865Z,7.05
2023-04-16T13:32:25.065Z,8.07
2023-04-16T13:34:52.605Z,7.78
2023-04-16T13:37:19.879Z,7.57
2023-04-16T13:39:47.480Z,7.40
2023-04-16T13:42:14.675Z,7.43
2023-04-16T13:44:42.747Z,8.07
2023-04-16T13:47:09.963Z,7.25
2023-04-16T13:49:37.500Z,7.43
2023-04-16T13:52:04.933Z,6.85
2023-04-16T13:54:32.527Z,6.43
2023-04-16T13:56:59.789Z,9.30
2023-04-16T13:59:27.497Z,10.20
2023-04-16T14:01:54.787Z,9.40
2023-04-16T14:04:22.641Z,7.47
2023-04-16T14:06:50.694Z,8.52
2023-04-16T14:09:18.327Z,8.27
2023-04-16T14:11:45.590Z,11.52
2023-04-16T14:14:13.136Z,9.68
2023-04-16T14:16:40.538Z,11.55
2023-04-16T14:19:08.127Z,11.60
2023-04-16T14:21:35.989Z,12.13
2023-04-16T14:24:04.168Z,12.80
2023-04-16T14:26:31.618Z,12.90
2023-04-16T14:28:59.147Z,12.32
2023-04-16T14:31:27.191Z,10.75
2023-04-16T14:33:54.738Z,14.00
2023-04-16T14:36:21.934Z,11.45
2023-04-16T14:38:49.514Z,11.85
2023-04-16T14:41:16.880Z,11.25
2023-04-16T14:43:45.018Z,11.43
2023-04-16T14:46:12.557Z,11.85
2023-04-16T14:48:40.108Z,13.38
2023-04-16T14:51:07.332Z,12.43
2023-04-16T14:53:36.593Z,11.80
2023-04-16T14:56:04.960Z,11.82
2023-04-16T14:58:32.766Z,9.43
2023-04-16T15:01:00.668Z,11.38
2023-04-16T15:03:29.741Z,10.55
2023-04-16T15:05:58.065Z,11.75
2023-04-16T15:08:25.578Z,11.23
2023-04-16T15:10:52.805Z,11.27
2023-04-16T15:13:20.425Z,9.73
2023-04-16T15:15:48.134Z,10.88
2023-04-16T15:18:16.534Z,11.63
2023-04-16T15:20:43.819Z,10.88
2023-04-16T15:23:11.373Z,10.27
2023-04-16T15:25:38.549Z,11.35
2023-04-16T15:28:06.581Z,7.85
2023-04-16T15:30:33.963Z,11.50
2023-04-16T15:33:01.696Z,8.52
2023-04-16T15:35:29.396Z,9.23
2023-04-16T15:37:56.886Z,7.60
2023-04-16T15:40:25.469Z,8.43
2023-04-16T15:42:52.984Z,8.70
2023-04-16T15:45:20.235Z,10.32
2023-04-16T15:47:51.114Z,11.38
2023-04-16T15:50:19.516Z,10.20
2023-04-16T15:52:47.683Z,8.23
2023-04-16T15:55:16.718Z,8.50
2023-04-16T15:57:44.333Z,8.60
2023-04-16T16:00:13.991Z,7.93
2023-04-16T16:02:42.610Z,9.93
2023-04-16T16:05:11.934Z,8.48
2023-04-16T16:07:40.339Z,8.35
2023-04-16T16:10:09.464Z,7.50
2023-04-16T16:12:37.666Z,8.45
2023-04-16T16:15:06.571Z,9.77
2023-04-16T16:17:34.186Z,9.43
2023-04-16T16:20:01.745Z,8.57
2023-04-16T16:22:29.982Z,8.63
2023-04-16T16:24:58.205Z,7.07
2023-04-16T16:27:25.931Z,8.73
2023-04-16T16:29:53.335Z,7.75
2023-04-16T16:32:21.077Z,7.47
2023-04-16T16:34:48.800Z,10.18
2023-04-16T16:37:16.426Z,10.23
2023-04-16T16:39:43.767Z,6.30
2023-04-16T16:42:11.375Z,7.93
2023-04-16T16:44:39.287Z,8.40
2023-04-16T16:47:07.006Z,8.18
2023-04-16T16:49:34.391Z,5.75
2023-04-16T16:52:01.902Z,7.88
2023-04-16T16:54:29.162Z,8.38
2023-04-16T16:56:56.985Z,8.68
2023-04-16T16:59:24.302Z,7.65
2023-04-16T17:01:51.824Z,8.88
2023-04-16T17:04:20.316Z,7.97
2023-04-16T17:06:48.451Z,9.05
2023-04-16T17:09:15.878Z,7.57
2023-04-16T17:11:43.803Z,8.40
2023-04-16T17:14:11.506Z,7.97
2023-04-16T17:16:39.268Z,7.38
2023-04-16T17:19:06.764Z,6.38
2023-04-16T17:21:34.472Z,7.60
2023-04-16T17:24:01.812Z,8.38
2023-04-16T17:26:29.528Z,8.13
2023-04-16T17:28:57.641Z,8.95
2023-04-16T17:31:27.311Z,7.15
2023-04-16T17:33:54.760Z,8.50
2023-04-16T17:36:23.288Z,7.60
2023-04-16T17:38:50.765Z,8.48
2023-04-16T17:41:18.652Z,8.02
2023-04-16T17:43:49.622Z,9.63
2023-04-16T17:46:17.329Z,8.98
2023-04-16T17:48:44.569Z,8.27
2023-04-16T17:51:12.431Z,10.10
2023-04-16T17:53:39.722Z,7.50
2023-04-16T17:56:07.291Z,9.18
2023-04-16T17:58:35.424Z,9.43
2023-04-16T18:01:03.768Z,9.57
2023-04-16T18:03:32.637Z,9.25
2023-04-16T18:06:00.712Z,9.05
2023-04-16T18:08:28.802Z,7.93
2023-04-16T18:10:56.901Z,8.48
2023-04-16T18:13:24.668Z,8.18
2023-04-16T18:15:53.046Z,7.22
2023-04-16T18:18:21.430Z,7.75
2023-04-16T18:20:49.064Z,8.75
2023-04-16T18:23:16.407Z,9.70
2023-04-16T18:25:44.557Z,7.68
2023-04-16T18:28:14.018Z,7.03
2023-04-16T18:30:42.806Z,8.40
2023-04-16T18:33:38.903Z,9.23
2023-04-16T18:36:04.889Z,8.73
2023-04-16T18:38:32.460Z,8.10
2023-04-16T18:41:00.117Z,8.13
2023-04-16T18:43:27.462Z,8.05
2023-04-16T18:45:55.040Z,6.65
2023-04-16T18:48:22.281Z,5.70
2023-04-16T18:50:49.776Z,5.72
2023-04-16T18:53:17.336Z,6.00
2023-04-16T18:55:45.020Z,9.75
2023-04-16T18:58:12.284Z,5.88
2023-04-16T19:00:40.150Z,5.78
2023-04-16T19:03:07.806Z,5.55
2023-04-16T19:05:35.629Z,5.72
2023-04-16T19:08:03.025Z,4.13
2023-04-16T19:10:30.772Z,4.63
2023-04-16T19:12:58.234Z,5.43
2023-04-16T19:15:25.845Z,5.80
2023-04-16T19:17:53.142Z,4.20
2023-04-16T19:20:21.111Z,4.60
2023-04-16T19:22:48.433Z,4.05
2023-04-16T19:25:16.109Z,3.92
2023-04-16T19:27:43.333Z,4.88
2023-04-16T19:30:11.402Z,5.43
2023-04-16T19:32:38.780Z,4.53
2023-04-16T19:35:07.104Z,5.35
2023-04-16T19:37:34.432Z,5.07
2023-04-16T19:40:02.231Z,5.95
2023-04-16T19:42:29.505Z,5.25
2023-04-16T19:44:57.126Z,5.03
2023-04-16T19:47:24.500Z,6.88
2023-04-16T19:49:52.253Z,4.65
2023-04-16T19:52:19.736Z,4.25
2023-04-16T19:54:47.907Z,2.80
2023-04-16T19:57:15.160Z,3.65
2023-04-16T19:59:42.706Z,4.63
2023-04-16T20:02:09.992Z,2.97
2023-04-16T20:04:37.689Z,3.85
2023-04-16T20:07:05.003Z,3.90
2023-04-16T20:09:32.585Z,2.83
2023-04-16T20:12:00.790Z,3.45
2023-04-16T20:14:28.262Z,2.85
2023-04-16T20:16:55.569Z,6.55
2023-04-16T20:19:26.421Z,2.83
2023-04-16T20:21:53.644Z,3.00
2023-04-16T20:24:23.949Z,4.38
2023-04-16T20:26:51.254Z,3.00
2023-04-16T20:29:18.755Z,3.03
2023-04-16T20:31:46.345Z,3.20
2023-04-16T20:34:13.985Z,4.15
2023-04-16T20:36:41.273Z,2.75
2023-04-16T20:39:09.835Z,3.03
2023-04-16T20:41:40.215Z,3.10
2023-04-16T20:44:10.102Z,3.85
2023-04-16T20:46:40.346Z,2.80
2023-04-16T20:49:08.490Z,2.55
2023-04-16T20:51:38.011Z,3.28
2023-04-16T20:54:08.182Z,2.40
2023-04-16T20:56:35.399Z,3.45
2023-04-16T20:59:02.990Z,2.30
2023-04-16T21:01:30.311Z,2.72
2023-04-16T21:03:58.061Z,2.72
2023-04-16T21:06:25.616Z,3.45
2023-04-16T21:08:53.220Z,2.13
2023-04-16T21:11:20.838Z,1.83
2023-04-16T21:13:48.393Z,2.50
2023-04-16T21:16:15.696Z,2.15
2023-04-16T21:18:43.213Z,1.92
2023-04-16T21:21:10.615Z,2.50
2023-04-16T21:23:38.126Z,2.28
2023-04-16T21:26:05.450Z,1.85
2023-04-16T21:28:33.034Z,3.13
2023-04-16T21:31:00.391Z,1.58
2023-04-16T21:33:27.944Z,2.65
2023-04-16T21:35:55.217Z,3.70
2023-04-16T21:38:23.082Z,3.67
2023-04-16T21:40:53.888Z,2.90
2023-04-16T21:43:22.486Z,4.03
2023-04-16T21:45:53.132Z,2.13
2023-04-16T21:48:21.201Z,2.88
2023-04-16T21:51:06.219Z,2.97
2023-04-16T21:53:34.411Z,3.85
2023-04-16T21:56:01.676Z,3.17
2023-04-16T21:58:29.261Z,3.30
2023-04-16T22:00:56.563Z,2.78
2023-04-16T22:03:28.009Z,4.15
2023-04-16T22:06:02.740Z,3.13
2023-04-16T22:08:30.617Z,3.60
2023-04-16T22:11:02.328Z,3.53
2023-04-16T22:16:03.625Z,2.97
2023-04-16T22:18:34.044Z,3.65
2023-04-16T22:21:02.155Z,2.58
2023-04-16T22:23:30.431Z,3.30
2023-04-16T22:25:57.612Z,2.33
2023-04-16T22:28:25.080Z,3.83
2023-04-16T22:30:52.259Z,3.45
2023-04-16T22:33:19.733Z,2.90
2023-04-16T22:35:46.966Z,2.65
2023-04-16T22:38:14.552Z,2.88
2023-04-16T22:40:41.761Z,3.38
2023-04-16T22:43:09.329Z,2.95
2023-04-16T22:45:37.579Z,3.25
2023-04-16T22:48:05.275Z,3.00
2023-04-16T22:50:32.572Z,3.40
2023-04-16T22:53:00.088Z,3.67
2023-04-16T22:55:27.261Z,3.42
2023-04-16T22:57:54.691Z,3.10
2023-04-16T23:00:22.021Z,3.15
2023-04-16T23:02:49.688Z,2.55
2023-04-16T23:05:16.940Z,2.78
2023-04-16T23:07:44.480Z,3.10
2023-04-16T23:10:11.667Z,2.88
2023-04-16T23:12:39.296Z,3.20
2023-04-16T23:15:07.086Z,4.00
2023-04-16T23:17:35.274Z,3.28
2023-04-16T23:20:02.938Z,3.22
2023-04-16T23:22:30.562Z,4.28
2023-04-16T23:24:57.742Z,4.28
2023-04-16T23:27:25.232Z,4.13
2023-04-16T23:29:52.459Z,5.63
2023-04-16T23:32:19.966Z,4.38
2023-04-16T23:34:47.147Z,5.10
2023-04-16T23:37:14.670Z,3.67
2023-04-16T23:39:42.014Z,4.18
2023-04-16T23:42:09.494Z,3.78
2023-04-16T23:44:36.791Z,4.15
2023-04-16T23:47:04.566Z,3.72
2023-04-16T23:49:31.817Z,4.45
2023-04-16T23:51:59.317Z,3.65
2023-04-16T23:54:26.629Z,4.15
2023-04-16T23:56:54.099Z,4.10
2023-04-16T23:59:21.298Z,4.38
